Time,TemperatureF,DewpointF,PressureIn,WindDirection,WindDirectionDegrees,WindSpeedMPH,WindSpeedGustMPH,Humidity,HourlyPrecipIn,Conditions,Clouds,dailyrainin,SoftwareType,DateUTC
2013-04-26 00:05:00,34.6,33.3,30.36,NNW,347,0.0,0.0,95,0.00,,,0.00,Wunderground v.1.15,2013-04-26 04:05:00,
2013-04-26 00:10:00,34.5,33.2,30.36,NNW,347,0.0,0.0,95,0.00,,,0.00,Wunderground v.1.15,2013-04-26 04:10:00,
2013-04-26 00:15:00,34.5,33.2,30.36,NNW,347,0.0,0.0,95,0.00,,,0.00,Wunderground v.1.15,2013-04-26 04:15:00,
2013-04-26 00:20:00,34.3,33.0,30.36,NNW,347,0.0,0.0,95,0.00,,,0.00,Wunderground v.1.15,2013-04-26 04:20:00,
2013-04-26 00:25:00,34.0,32.7,30.36,NNW,347,0.0,0.0,95,0.00,,,0.00,Wunderground v.1.15,2013-04-26 04:25:00,
2013-04-26 00:30:00,33.6,32.3,30.36,NNW,347,0.0,0.0,95,0.00,,,0.00,Wunderground v.1.15,2013-04-26 04:30:00,
2013-04-26 00:35:00,33.5,32.2,30.36,NNW,347,0.0,0.0,95,0.00,,,0.00,Wunderground v.1.15,2013-04-26 04:35:00,
2013-04-26 00:40:00,33.5,32.2,30.36,NNW,347,0.0,0.0,95,0.00,,,0.00,Wunderground v.1.15,2013-04-26 04:40:00,
2013-04-26 00:50:00,33.5,32.2,30.36,NNW,347,0.0,0.0,95,0.00,,,0.00,Wunderground v.1.15,2013-04-26 04:50:00,
2013-04-26 00:55:00,33.3,32.0,30.36,NNW,347,0.0,0.0,95,0.00,,,0.00,Wunderground v.1.15,2013-04-26 04:55:00,
2013-04-26 01:00:00,33.1,31.8,30.37,NNW,347,0.0,0.0,95,0.00,,,0.00,Wunderground v.1.15,2013-04-26 05:00:00,
2013-04-26 01:10:00,33.1,31.8,30.37,NNW,347,0.0,0.0,95,0.00,,,0.00,Wunderground v.1.15,2013-04-26 05:10:00,
2013-04-26 01:15:00,32.9,31.6,30.37,NNW,347,0.0,0.0,95,0.00,,,0.00,Wunderground v.1.15,2013-04-26 05:15:00,
2013-04-26 01:20:00,32.8,31.5,30.37,NNW,347,0.0,0.0,95,0.00,,,0.00,Wunderground v.1.15,2013-04-26 05:20:00,
2013-04-26 01:30:00,32.7,31.4,30.37,NNW,347,0.0,0.0,95,0.00,,,0.00,Wunderground v.1.15,2013-04-26 05:30:00,
2013-04-26 01:40:00,32.6,31.6,30.37,NNW,347,0.0,0.0,96,0.00,,,0.00,Wunderground v.1.15,2013-04-26 05:40:00,
2013-04-26 01:45:00,32.5,31.5,30.37,NNW,347,0.0,0.0,96,0.00,,,0.00,Wunderground v.1.15,2013-04-26 05:45:00,
2013-04-26 01:50:00,32.5,31.5,30.37,NNW,347,0.0,0.0,96,0.00,,,0.00,Wunderground v.1.15,2013-04-26 05:50:00,
2013-04-26 01:55:00,32.4,31.4,30.37,NNW,347,0.0,0.0,96,0.00,,,0.00,Wunderground v.1.15,2013-04-26 05:55:00,
2013-04-26 02:00:00,32.4,31.4,30.37,NNW,347,0.0,0.0,96,0.00,,,0.00,Wunderground v.1.15,2013-04-26 06:00:00,
2013-04-26 02:10:00,32.2,31.2,30.38,NNW,347,0.0,0.0,96,0.00,,,0.00,Wunderground v.1.15,2013-04-26 06:10:00,
2013-04-26 02:15:00,31.9,30.9,30.38,NNW,347,0.0,0.0,96,0.00,,,0.01,Wunderground v.1.15,2013-04-26 06:15:00,
2013-04-26 02:20:00,31.6,30.3,30.38,NNW,347,0.0,0.0,95,0.00,,,0.01,Wunderground v.1.15,2013-04-26 06:20:00,
2013-04-26 02:30:00,31.4,30.4,30.38,NNW,347,0.0,0.0,96,0.00,,,0.01,Wunderground v.1.15,2013-04-26 06:30:00,
2013-04-26 02:35:00,31.3,30.3,30.38,NNW,347,0.0,0.0,96,0.00,,,0.01,Wunderground v.1.15,2013-04-26 06:35:00,
2013-04-26 02:40:00,31.4,30.4,30.38,NNW,347,0.0,0.0,96,0.00,,,0.01,Wunderground v.1.15,2013-04-26 06:40:00,
2013-04-26 02:45:00,31.4,30.4,30.38,NNW,347,0.0,0.0,96,0.00,,,0.01,Wunderground v.1.15,2013-04-26 06:45:00,
2013-04-26 02:50:00,31.2,30.2,30.38,NNW,347,0.0,0.0,96,0.00,,,0.01,Wunderground v.1.15,2013-04-26 06:50:00,
2013-04-26 02:55:00,31.0,30.0,30.38,NNW,347,0.0,0.0,96,0.00,,,0.01,Wunderground v.1.15,2013-04-26 06:55:00,
2013-04-26 03:05:00,30.6,29.6,30.38,NNW,347,0.0,0.0,96,0.00,,,0.01,Wunderground v.1.15,2013-04-26 07:05:00,
2013-04-26 03:10:00,30.5,29.5,30.38,NNW,347,0.0,0.0,96,0.00,,,0.01,Wunderground v.1.15,2013-04-26 07:10:00,
2013-04-26 03:20:00,30.7,29.7,30.38,NNW,347,0.0,0.0,96,0.00,,,0.01,Wunderground v.1.15,2013-04-26 07:20:00,
2013-04-26 03:25:00,30.8,29.8,30.38,NNW,347,0.0,0.0,96,0.00,,,0.01,Wunderground v.1.15,2013-04-26 07:25:00,
2013-04-26 03:30:00,30.8,29.8,30.38,NNW,347,0.0,0.0,96,0.00,,,0.01,Wunderground v.1.15,2013-04-26 07:30:00,
2013-04-26 03:35:00,30.8,29.8,30.38,NNW,347,0.0,0.0,96,0.00,,,0.01,Wunderground v.1.15,2013-04-26 07:35:00,
2013-04-26 03:40:00,30.7,29.7,30.39,NNW,347,0.0,0.0,96,0.00,,,0.01,Wunderground v.1.15,2013-04-26 07:40:00,
2013-04-26 03:50:00,30.6,29.6,30.38,NNW,347,0.0,0.0,96,0.00,,,0.01,Wunderground v.1.15,2013-04-26 07:50:00,
2013-04-26 04:00:00,30.2,29.2,30.39,NNW,347,0.0,0.0,96,0.00,,,0.01,Wunderground v.1.15,2013-04-26 08:00:00,
2013-04-26 04:10:00,29.7,28.7,30.39,NNW,347,0.0,0.0,96,0.00,,,0.01,Wunderground v.1.15,2013-04-26 08:10:00,
2013-04-26 04:15:00,29.6,28.6,30.39,NNW,347,0.0,0.0,96,0.00,,,0.01,Wunderground v.1.15,2013-04-26 08:15:00,
2013-04-26 04:20:00,29.6,28.6,30.39,NNW,347,0.0,0.0,96,0.00,,,0.01,Wunderground v.1.15,2013-04-26 08:20:00,
2013-04-26 04:25:00,29.6,28.6,30.39,NNW,347,0.0,0.0,96,0.00,,,0.01,Wunderground v.1.15,2013-04-26 08:25:00,
2013-04-26 04:35:00,29.4,28.4,30.39,NNW,347,0.0,0.0,96,0.00,,,0.01,Wunderground v.1.15,2013-04-26 08:35:00,
2013-04-26 04:40:00,29.4,28.4,30.39,NNW,347,0.0,0.0,96,0.00,,,0.01,Wunderground v.1.15,2013-04-26 08:40:00,
2013-04-26 04:45:00,29.3,28.3,30.40,NNW,347,0.0,0.0,96,0.00,,,0.01,Wunderground v.1.15,2013-04-26 08:45:00,
2013-04-26 04:50:00,29.2,28.2,30.40,NNW,347,0.0,0.0,96,0.00,,,0.01,Wunderground v.1.15,2013-04-26 08:50:00,
2013-04-26 04:55:00,29.1,28.1,30.40,NNW,347,0.0,0.0,96,0.00,,,0.01,Wunderground v.1.15,2013-04-26 08:55:00,
2013-04-26 05:00:00,28.9,27.9,30.40,NNW,347,0.0,0.0,96,0.00,,,0.01,Wunderground v.1.15,2013-04-26 09:00:00,
2013-04-26 05:05:00,28.9,27.9,30.39,N/A,-737280,0.0,-999.0,96,0.00,,,0.01,Wunderground v.1.15,2013-04-26 09:05:00,
2013-04-26 05:10:00,29.1,28.1,30.39,NNW,347,0.0,0.0,96,0.00,,,0.01,Wunderground v.1.15,2013-04-26 09:10:00,
2013-04-26 05:15:00,29.1,28.1,30.39,NNW,347,0.0,0.0,96,0.00,,,0.01,Wunderground v.1.15,2013-04-26 09:15:00,
2013-04-26 05:20:00,29.1,28.1,30.39,N/A,-737280,0.0,-999.0,96,0.00,,,0.01,Wunderground v.1.15,2013-04-26 09:20:00,
2013-04-26 05:25:00,29.1,28.1,30.40,N/A,-737280,0.0,-999.0,96,0.00,,,0.01,Wunderground v.1.15,2013-04-26 09:25:00,
2013-04-26 05:30:00,29.1,28.1,30.41,N/A,-737280,0.0,-999.0,96,0.00,,,0.01,Wunderground v.1.15,2013-04-26 09:30:00,
2013-04-26 05:35:00,29.1,28.1,30.41,N/A,-737280,0.0,-999.0,96,0.00,,,0.01,Wunderground v.1.15,2013-04-26 09:35:00,
2013-04-26 05:40:00,29.1,28.1,30.41,N/A,-737280,0.0,-999.0,96,0.00,,,0.01,Wunderground v.1.15,2013-04-26 09:40:00,
2013-04-26 05:45:00,29.0,28.0,30.42,N/A,-737280,0.0,-999.0,96,0.00,,,0.01,Wunderground v.1.15,2013-04-26 09:45:00,
2013-04-26 05:50:00,28.9,27.9,30.42,N/A,-737280,0.0,-999.0,96,0.00,,,0.01,Wunderground v.1.15,2013-04-26 09:50:00,
2013-04-26 05:55:00,28.8,27.8,30.42,N/A,-737280,0.0,-999.0,96,0.00,,,0.01,Wunderground v.1.15,2013-04-26 09:55:00,
2013-04-26 06:00:00,28.6,27.6,30.42,N/A,-737280,0.0,-999.0,96,0.00,,,0.01,Wunderground v.1.15,2013-04-26 10:00:00,
2013-04-26 06:05:00,28.5,27.5,30.42,N/A,-737280,0.0,-999.0,96,0.00,,,0.01,Wunderground v.1.15,2013-04-26 10:05:00,
2013-04-26 06:10:00,28.3,27.3,30.43,N/A,-737280,0.0,-999.0,96,0.00,,,0.01,Wunderground v.1.15,2013-04-26 10:10:00,
2013-04-26 06:15:00,28.2,27.2,30.43,N/A,-737280,0.0,-999.0,96,0.00,,,0.01,Wunderground v.1.15,2013-04-26 10:15:00,
2013-04-26 06:20:00,28.2,27.2,30.43,N/A,-737280,0.0,-999.0,96,0.00,,,0.01,Wunderground v.1.15,2013-04-26 10:20:00,
2013-04-26 06:25:00,28.2,27.2,30.43,N/A,-737280,0.0,-999.0,96,0.00,,,0.01,Wunderground v.1.15,2013-04-26 10:25:00,
2013-04-26 06:30:00,28.1,27.1,30.43,N/A,-737280,0.0,-999.0,96,0.00,,,0.01,Wunderground v.1.15,2013-04-26 10:30:00,
2013-04-26 06:35:00,28.1,27.1,30.43,N/A,-737280,0.0,-999.0,96,0.00,,,0.01,Wunderground v.1.15,2013-04-26 10:35:00,
2013-04-26 06:40:00,28.0,27.0,30.43,N/A,-737280,0.0,-999.0,96,0.00,,,0.01,Wunderground v.1.15,2013-04-26 10:40:00,
2013-04-26 06:45:00,27.9,26.9,30.43,N/A,-737280,0.0,-999.0,96,0.00,,,0.01,Wunderground v.1.15,2013-04-26 10:45:00,
2013-04-26 06:50:00,27.9,26.9,30.43,N/A,-737280,0.0,-999.0,96,0.00,,,0.01,Wunderground v.1.15,2013-04-26 10:50:00,
2013-04-26 06:55:00,27.8,26.8,30.43,N/A,-737280,0.0,-999.0,96,0.00,,,0.01,Wunderground v.1.15,2013-04-26 10:55:00,
2013-04-26 07:00:00,27.8,26.8,30.44,N/A,-737280,0.0,-999.0,96,0.00,,,0.01,Wunderground v.1.15,2013-04-26 11:00:00,
2013-04-26 07:05:00,27.9,26.9,30.44,N/A,-737280,0.0,-999.0,96,0.00,,,0.01,Wunderground v.1.15,2013-04-26 11:05:00,
2013-04-26 07:10:00,27.9,26.9,30.44,N/A,-737280,0.0,-999.0,96,0.00,,,0.01,Wunderground v.1.15,2013-04-26 11:10:00,
2013-04-26 07:15:00,28.0,27.0,30.45,N/A,-737280,0.0,-999.0,96,0.00,,,0.01,Wunderground v.1.15,2013-04-26 11:15:00,
2013-04-26 07:20:00,28.0,27.0,30.45,N/A,-737280,0.0,-999.0,96,0.00,,,0.01,Wunderground v.1.15,2013-04-26 11:20:00,
2013-04-26 07:25:00,28.1,27.1,30.45,N/A,-737280,0.0,-999.0,96,0.00,,,0.01,Wunderground v.1.15,2013-04-26 11:25:00,
2013-04-26 07:30:00,28.3,27.3,30.45,N/A,-737280,0.0,-999.0,96,0.00,,,0.01,Wunderground v.1.15,2013-04-26 11:30:00,
2013-04-26 07:35:00,28.5,27.8,30.45,N/A,-737280,0.0,-999.0,97,0.00,,,0.01,Wunderground v.1.15,2013-04-26 11:35:00,
2013-04-26 07:40:00,28.7,28.0,30.45,N/A,-737280,0.0,-999.0,97,0.00,,,0.01,Wunderground v.1.15,2013-04-26 11:40:00,
2013-04-26 07:45:00,28.9,28.2,30.45,N/A,-737280,0.0,-999.0,97,0.00,,,0.01,Wunderground v.1.15,2013-04-26 11:45:00,
2013-04-26 07:50:00,29.5,28.8,30.46,N/A,-737280,0.0,-999.0,97,0.00,,,0.01,Wunderground v.1.15,2013-04-26 11:50:00,
2013-04-26 07:55:00,30.3,29.6,30.46,N/A,-737280,0.0,-999.0,97,0.00,,,0.01,Wunderground v.1.15,2013-04-26 11:55:00,
2013-04-26 08:00:00,31.1,30.3,30.46,N/A,-737280,0.0,-999.0,97,0.00,,,0.01,Wunderground v.1.15,2013-04-26 12:00:00,
2013-04-26 08:05:00,31.9,31.1,30.46,N/A,-737280,0.0,-999.0,97,0.00,,,0.01,Wunderground v.1.15,2013-04-26 12:05:00,
2013-04-26 08:10:00,33.1,32.3,30.46,N/A,-737280,0.0,-999.0,97,0.00,,,0.01,Wunderground v.1.15,2013-04-26 12:10:00,
2013-04-26 08:15:00,34.5,33.7,30.46,N/A,-737280,0.0,-999.0,97,0.00,,,0.01,Wunderground v.1.15,2013-04-26 12:15:00,
2013-04-26 08:20:00,35.9,35.1,30.46,N/A,-737280,0.0,-999.0,97,0.00,,,0.01,Wunderground v.1.15,2013-04-26 12:20:00,
2013-04-26 08:25:00,36.6,35.8,30.47,N/A,-737280,0.0,-999.0,97,0.00,,,0.01,Wunderground v.1.15,2013-04-26 12:25:00,
2013-04-26 08:30:00,36.4,35.6,30.47,N/A,-737280,0.0,-999.0,97,0.00,,,0.01,Wunderground v.1.15,2013-04-26 12:30:00,
2013-04-26 08:35:00,36.6,35.8,30.47,N/A,-737280,0.0,-999.0,97,0.00,,,0.01,Wunderground v.1.15,2013-04-26 12:35:00,
2013-04-26 08:40:00,37.0,36.2,30.47,N/A,-737280,0.0,-999.0,97,0.00,,,0.01,Wunderground v.1.15,2013-04-26 12:40:00,
2013-04-26 08:45:00,37.6,36.8,30.47,N/A,-737280,0.0,-999.0,97,0.00,,,0.01,Wunderground v.1.15,2013-04-26 12:45:00,
2013-04-26 08:50:00,38.4,37.6,30.47,N/A,-737280,0.0,-999.0,97,0.00,,,0.01,Wunderground v.1.15,2013-04-26 12:50:00,
2013-04-26 08:55:00,38.9,38.1,30.47,SSW,203,1.0,-999.0,97,0.00,,,0.01,Wunderground v.1.15,2013-04-26 12:55:00,
2013-04-26 09:00:00,39.5,38.7,30.47,South,180,1.0,-999.0,97,0.00,,,0.01,Wunderground v.1.15,2013-04-26 13:00:00,
2013-04-26 09:05:00,40.3,39.5,30.47,South,180,0.0,-999.0,97,0.00,,,0.01,Wunderground v.1.15,2013-04-26 13:05:00,
2013-04-26 09:10:00,41.1,40.3,30.47,SSE,158,0.0,-999.0,97,0.00,,,0.01,Wunderground v.1.15,2013-04-26 13:10:00,
2013-04-26 09:15:00,41.9,41.1,30.47,SSE,158,0.0,-999.0,97,0.00,,,0.01,Wunderground v.1.15,2013-04-26 13:15:00,
2013-04-26 09:20:00,42.5,41.7,30.47,N/A,-737280,0.0,-999.0,97,0.00,,,0.01,Wunderground v.1.15,2013-04-26 13:20:00,
2013-04-26 09:25:00,43.2,42.4,30.47,N/A,-737280,0.0,-999.0,97,0.00,,,0.01,Wunderground v.1.15,2013-04-26 13:25:00,
2013-04-26 09:30:00,44.0,43.2,30.47,N/A,-737280,0.0,-999.0,97,0.00,,,0.01,Wunderground v.1.15,2013-04-26 13:30:00,
2013-04-26 09:35:00,44.5,43.4,30.47,N/A,-737280,0.0,-999.0,96,0.00,,,0.01,Wunderground v.1.15,2013-04-26 13:35:00,
2013-04-26 09:40:00,44.8,43.7,30.47,N/A,-737280,0.0,-999.0,96,0.00,,,0.01,Wunderground v.1.15,2013-04-26 13:40:00,
2013-04-26 09:45:00,46.1,44.5,30.47,SW,232,0.0,0.0,94,0.00,,,0.01,Wunderground v.1.15,2013-04-26 13:45:00,
2013-04-26 09:50:00,46.4,43.9,30.47,SE,144,1.0,1.0,91,0.00,,,0.01,Wunderground v.1.15,2013-04-26 13:50:00,
2013-04-26 09:55:00,46.5,42.2,30.47,ESE,106,1.0,2.0,85,0.00,,,0.01,Wunderground v.1.15,2013-04-26 13:55:00,
2013-04-26 10:00:00,46.6,41.7,30.47,East,89,1.0,1.0,83,0.00,,,0.01,Wunderground v.1.15,2013-04-26 14:00:00,
2013-04-26 10:05:00,46.8,41.3,30.47,NNE,23,1.0,-999.0,81,0.00,,,0.01,Wunderground v.1.15,2013-04-26 14:05:00,
2013-04-26 10:10:00,46.8,41.3,30.47,NNE,19,1.0,5.0,81,0.00,,,0.01,Wunderground v.1.15,2013-04-26 14:10:00,
2013-04-26 10:15:00,46.9,39.0,30.47,NNE,23,2.0,-999.0,74,0.00,,,0.01,Wunderground v.1.15,2013-04-26 14:15:00,
2013-04-26 10:20:00,47.9,39.3,30.47,SSW,203,2.0,4.0,72,0.00,,,0.01,Wunderground v.1.15,2013-04-26 14:20:00,
2013-04-26 10:25:00,48.4,39.4,30.47,SE,127,2.0,4.0,71,0.00,,,0.01,Wunderground v.1.15,2013-04-26 14:25:00,
2013-04-26 10:30:00,48.3,37.1,30.47,NW,304,2.0,3.0,65,0.00,,,0.01,Wunderground v.1.15,2013-04-26 14:30:00,
2013-04-26 10:35:00,47.8,38.1,30.47,SSE,154,3.0,3.0,69,0.00,,,0.01,Wunderground v.1.15,2013-04-26 14:35:00,
2013-04-26 10:40:00,48.4,36.0,30.47,East,88,3.0,3.0,62,0.00,,,0.01,Wunderground v.1.15,2013-04-26 14:40:00,
2013-04-26 10:45:00,48.6,34.0,30.47,NE,45,2.0,-999.0,57,0.00,,,0.01,Wunderground v.1.15,2013-04-26 14:45:00,
2013-04-26 10:50:00,49.5,35.8,30.47,SSW,208,2.0,2.0,59,0.00,,,0.01,Wunderground v.1.15,2013-04-26 14:50:00,
2013-04-26 10:55:00,50.3,37.4,30.47,SE,141,2.0,2.0,61,0.00,,,0.01,Wunderground v.1.15,2013-04-26 14:55:00,
2013-04-26 11:00:00,50.8,37.0,30.48,WSW,250,2.0,2.0,59,0.00,,,0.01,Wunderground v.1.15,2013-04-26 15:00:00,
2013-04-26 11:10:00,51.0,34.9,30.48,SE,146,3.0,3.0,54,0.00,,,0.01,Wunderground v.1.15,2013-04-26 15:10:00,
2013-04-26 11:15:00,51.4,37.1,30.48,South,186,4.0,4.0,58,0.00,,,0.01,Wunderground v.1.15,2013-04-26 15:15:00,
2013-04-26 11:20:00,51.7,36.9,30.48,SSW,196,4.0,7.0,57,0.00,,,0.01,Wunderground v.1.15,2013-04-26 15:20:00,
2013-04-26 11:30:00,51.7,37.4,30.48,SSE,156,4.0,5.0,58,0.00,,,0.01,Wunderground v.1.15,2013-04-26 15:30:00,
2013-04-26 11:35:00,51.8,36.1,30.48,SW,225,3.0,5.0,55,0.00,,,0.01,Wunderground v.1.15,2013-04-26 15:35:00,
2013-04-26 11:40:00,51.8,37.0,30.48,SW,232,4.0,4.0,57,0.00,,,0.01,Wunderground v.1.15,2013-04-26 15:40:00,
2013-04-26 11:50:00,52.2,35.1,30.48,WNW,287,3.0,3.0,52,0.00,,,0.01,Wunderground v.1.15,2013-04-26 15:50:00,
2013-04-26 11:55:00,52.6,35.9,30.48,SSW,210,2.0,3.0,53,0.00,,,0.01,Wunderground v.1.15,2013-04-26 15:55:00,
2013-04-26 12:00:00,53.0,34.3,30.47,NNE,16,2.0,2.0,49,0.00,,,0.01,Wunderground v.1.15,2013-04-26 16:00:00,
2013-04-26 12:10:00,53.2,37.9,30.47,SSW,211,2.0,3.0,56,0.00,,,0.01,Wunderground v.1.15,2013-04-26 16:10:00,
2013-04-26 12:15:00,53.7,36.5,30.47,SSW,200,3.0,3.0,52,0.00,,,0.01,Wunderground v.1.15,2013-04-26 16:15:00,
2013-04-26 12:20:00,53.7,37.0,30.47,SSW,196,4.0,4.0,53,0.00,,,0.01,Wunderground v.1.15,2013-04-26 16:20:00,
2013-04-26 12:30:00,54.0,35.3,30.46,ESE,114,2.0,2.0,49,0.00,,,0.01,Wunderground v.1.15,2013-04-26 16:30:00,
2013-04-26 12:35:00,54.3,35.5,30.45,ESE,115,2.0,2.0,49,0.00,,,0.01,Wunderground v.1.15,2013-04-26 16:35:00,
2013-04-26 12:40:00,54.3,35.5,30.45,SW,233,2.0,2.0,49,0.00,,,0.01,Wunderground v.1.15,2013-04-26 16:40:00,
2013-04-26 12:45:00,54.2,36.5,30.45,WSW,256,3.0,5.0,51,0.00,,,0.01,Wunderground v.1.15,2013-04-26 16:45:00,
2013-04-26 12:50:00,53.9,35.7,30.45,SSW,197,4.0,4.0,50,0.00,,,0.01,Wunderground v.1.15,2013-04-26 16:50:00,
2013-04-26 13:00:00,54.4,35.6,30.46,West,276,4.0,4.0,49,0.00,,,0.01,Wunderground v.1.15,2013-04-26 17:00:00,
2013-04-26 13:10:00,54.5,36.7,30.46,SW,232,3.0,4.0,51,0.00,,,0.01,Wunderground v.1.15,2013-04-26 17:10:00,
2013-04-26 13:15:00,54.6,36.3,30.46,SW,233,4.0,6.0,50,0.00,,,0.01,Wunderground v.1.15,2013-04-26 17:15:00,
2013-04-26 13:20:00,54.9,36.6,30.45,SE,143,6.0,6.0,50,0.00,,,0.01,Wunderground v.1.15,2013-04-26 17:20:00,
2013-04-26 13:25:00,55.0,36.7,30.45,ESE,108,5.0,6.0,50,0.00,,,0.01,Wunderground v.1.15,2013-04-26 17:25:00,
2013-04-26 13:30:00,55.5,37.1,30.45,ESE,103,3.0,6.0,50,0.00,,,0.01,Wunderground v.1.15,2013-04-26 17:30:00,
2013-04-26 13:35:00,55.5,37.1,30.45,SE,136,3.0,6.0,50,0.00,,,0.01,Wunderground v.1.15,2013-04-26 17:35:00,
2013-04-26 13:40:00,55.4,36.0,30.45,SE,140,4.0,4.0,48,0.00,,,0.01,Wunderground v.1.15,2013-04-26 17:40:00,
2013-04-26 13:50:00,55.6,38.7,30.45,South,186,2.0,3.0,53,0.00,,,0.01,Wunderground v.1.15,2013-04-26 17:50:00,
2013-04-26 13:55:00,56.2,36.8,30.45,ESE,120,2.0,3.0,48,0.00,,,0.01,Wunderground v.1.15,2013-04-26 17:55:00,
2013-04-26 14:00:00,57.1,38.6,30.45,SW,221,2.0,6.0,50,0.00,,,0.01,Wunderground v.1.15,2013-04-26 18:00:00,
2013-04-26 14:10:00,56.6,37.1,30.45,South,188,4.0,8.0,48,0.00,,,0.01,Wunderground v.1.15,2013-04-26 18:10:00,
2013-04-26 14:15:00,56.8,40.3,30.45,SSW,205,4.0,8.0,54,0.00,,,0.01,Wunderground v.1.15,2013-04-26 18:15:00,
2013-04-26 14:25:00,56.7,36.7,30.45,SW,225,5.0,6.0,47,0.00,,,0.01,Wunderground v.1.15,2013-04-26 18:25:00,
2013-04-26 14:30:00,56.9,35.2,30.45,SW,231,4.0,4.0,44,0.00,,,0.01,Wunderground v.1.15,2013-04-26 18:30:00,
2013-04-26 14:35:00,56.9,35.8,30.44,SE,124,3.0,4.0,45,0.00,,,0.01,Wunderground v.1.15,2013-04-26 18:35:00,
2013-04-26 14:40:00,57.0,33.5,30.44,NNW,336,3.0,3.0,41,0.00,,,0.01,Wunderground v.1.15,2013-04-26 18:40:00,
2013-04-26 14:45:00,57.2,37.1,30.44,SW,218,1.0,6.0,47,0.00,,,0.01,Wunderground v.1.15,2013-04-26 18:45:00,
2013-04-26 14:50:00,57.4,35.1,30.44,South,186,4.0,6.0,43,0.00,,,0.01,Wunderground v.1.15,2013-04-26 18:50:00,
2013-04-26 14:55:00,57.5,34.0,30.44,WSW,257,5.0,6.0,41,0.00,,,0.01,Wunderground v.1.15,2013-04-26 18:55:00,
2013-04-26 15:05:00,58.0,35.0,30.44,SE,146,2.0,3.0,42,0.00,,,0.01,Wunderground v.1.15,2013-04-26 19:05:00,
2013-04-26 15:10:00,58.4,36.6,30.44,SSW,208,3.0,3.0,44,0.00,,,0.01,Wunderground v.1.15,2013-04-26 19:10:00,
2013-04-26 15:15:00,58.5,37.2,30.44,SW,235,4.0,5.0,45,0.00,,,0.01,Wunderground v.1.15,2013-04-26 19:15:00,
2013-04-26 15:20:00,58.4,33.5,30.44,SSE,155,4.0,4.0,39,0.00,,,0.01,Wunderground v.1.15,2013-04-26 19:20:00,
2013-04-26 15:25:00,58.5,33.0,30.44,SSW,203,3.0,-999.0,38,0.00,,,0.01,Wunderground v.1.15,2013-04-26 19:25:00,
2013-04-26 15:30:00,58.5,35.5,30.43,SE,135,2.0,-999.0,42,0.00,,,0.01,Wunderground v.1.15,2013-04-26 19:30:00,
2013-04-26 15:35:00,58.6,33.7,30.43,SSW,203,5.0,-999.0,39,0.00,,,0.01,Wunderground v.1.15,2013-04-26 19:35:00,
2013-04-26 15:40:00,58.4,35.4,30.42,SW,225,3.0,-999.0,42,0.00,,,0.01,Wunderground v.1.15,2013-04-26 19:40:00,
2013-04-26 15:45:00,58.6,33.0,30.42,SSW,203,2.0,-999.0,38,0.00,,,0.01,Wunderground v.1.15,2013-04-26 19:45:00,
2013-04-26 15:50:00,59.1,33.5,30.42,SE,135,1.0,-999.0,38,0.00,,,0.01,Wunderground v.1.15,2013-04-26 19:50:00,
2013-04-26 15:55:00,59.1,32.8,30.42,ESE,113,2.0,-999.0,37,0.00,,,0.01,Wunderground v.1.15,2013-04-26 19:55:00,
2013-04-26 16:00:00,59.2,33.6,30.42,SSW,203,2.0,-999.0,38,0.00,,,0.01,Wunderground v.1.15,2013-04-26 20:00:00,
2013-04-26 16:05:00,59.6,33.9,30.41,SSW,203,1.0,-999.0,38,0.00,,,0.01,Wunderground v.1.15,2013-04-26 20:05:00,
2013-04-26 16:10:00,60.1,33.0,30.41,South,180,3.0,-999.0,36,0.00,,,0.01,Wunderground v.1.15,2013-04-26 20:10:00,
2013-04-26 16:15:00,60.1,33.7,30.41,SE,135,2.0,-999.0,37,0.00,,,0.01,Wunderground v.1.15,2013-04-26 20:15:00,
2013-04-26 16:20:00,60.4,34.0,30.41,SW,225,0.0,-999.0,37,0.00,,,0.01,Wunderground v.1.15,2013-04-26 20:20:00,
2013-04-26 16:25:00,61.1,33.2,30.40,NE,45,1.0,-999.0,35,0.00,,,0.01,Wunderground v.1.15,2013-04-26 20:25:00,
2013-04-26 16:30:00,60.6,33.5,30.40,ESE,113,2.0,-999.0,36,0.00,,,0.01,Wunderground v.1.15,2013-04-26 20:30:00,
2013-04-26 16:35:00,60.1,33.0,30.39,North,0,1.0,-999.0,36,0.00,,,0.01,Wunderground v.1.15,2013-04-26 20:35:00,
2013-04-26 16:40:00,60.2,31.7,30.39,North,0,2.0,-999.0,34,0.00,,,0.01,Wunderground v.1.15,2013-04-26 20:40:00,
2013-04-26 16:45:00,59.5,33.2,30.38,NNW,338,3.0,-999.0,37,0.00,,,0.01,Wunderground v.1.15,2013-04-26 20:45:00,
2013-04-26 16:50:00,59.4,32.4,30.38,SW,225,2.0,-999.0,36,0.00,,,0.01,Wunderground v.1.15,2013-04-26 20:50:00,
2013-04-26 16:55:00,59.7,32.7,30.38,West,270,3.0,-999.0,36,0.00,,,0.01,Wunderground v.1.15,2013-04-26 20:55:00,
2013-04-26 17:00:00,59.6,31.9,30.38,NNE,23,3.0,-999.0,35,0.00,,,0.01,Wunderground v.1.15,2013-04-26 21:00:00,
2013-04-26 17:05:00,59.4,32.4,30.38,NNW,338,2.0,-999.0,36,0.00,,,0.01,Wunderground v.1.15,2013-04-26 21:05:00,
2013-04-26 17:10:00,59.7,32.7,30.38,SW,225,2.0,-999.0,36,0.00,,,0.01,Wunderground v.1.15,2013-04-26 21:10:00,
2013-04-26 17:15:00,60.3,33.2,30.38,SSW,203,4.0,-999.0,36,0.00,,,0.01,Wunderground v.1.15,2013-04-26 21:15:00,
2013-04-26 17:20:00,60.3,33.2,30.38,ESE,113,2.0,-999.0,36,0.00,,,0.01,Wunderground v.1.15,2013-04-26 21:20:00,
2013-04-26 17:25:00,60.5,32.7,30.38,WSW,238,2.0,8.0,35,0.00,,,0.01,Wunderground v.1.15,2013-04-26 21:25:00,
2013-04-26 17:30:00,60.2,33.8,30.38,West,269,2.0,2.0,37,0.00,,,0.01,Wunderground v.1.15,2013-04-26 21:30:00,
2013-04-26 17:35:00,60.3,32.5,30.38,WSW,255,2.0,8.0,35,0.00,,,0.01,Wunderground v.1.15,2013-04-26 21:35:00,
2013-04-26 17:40:00,60.9,33.7,30.37,SSE,166,1.0,8.0,36,0.00,,,0.01,Wunderground v.1.15,2013-04-26 21:40:00,
2013-04-26 17:45:00,61.5,33.6,30.38,SW,235,1.0,8.0,35,0.00,,,0.01,Wunderground v.1.15,2013-04-26 21:45:00,
2013-04-26 17:50:00,61.3,36.1,30.37,SSW,204,2.0,8.0,39,0.00,,,0.01,Wunderground v.1.15,2013-04-26 21:50:00,
2013-04-26 17:55:00,61.2,33.3,30.37,SSW,203,3.0,-999.0,35,0.00,,,0.01,Wunderground v.1.15,2013-04-26 21:55:00,
2013-04-26 18:00:00,61.5,34.3,30.37,WSW,246,2.0,3.0,36,0.00,,,0.01,Wunderground v.1.15,2013-04-26 22:00:00,
2013-04-26 18:05:00,61.6,32.9,30.37,WSW,248,1.0,-999.0,34,0.00,,,0.01,Wunderground v.1.15,2013-04-26 22:05:00,
2013-04-26 18:10:00,62.0,33.3,30.37,SSW,202,2.0,2.0,34,0.00,,,0.01,Wunderground v.1.15,2013-04-26 22:10:00,
2013-04-26 18:15:00,62.5,35.2,30.38,WSW,253,2.0,2.0,36,0.00,,,0.01,Wunderground v.1.15,2013-04-26 22:15:00,
2013-04-26 18:20:00,62.2,35.6,30.38,SSW,196,2.0,2.0,37,0.00,,,0.01,Wunderground v.1.15,2013-04-26 22:20:00,
2013-04-26 18:30:00,61.7,33.0,30.38,SW,233,2.0,3.0,34,0.00,,,0.01,Wunderground v.1.15,2013-04-26 22:30:00,
2013-04-26 18:35:00,61.5,32.8,30.38,WSW,238,2.0,3.0,34,0.00,,,0.01,Wunderground v.1.15,2013-04-26 22:35:00,
2013-04-26 20:50:00,46.2,36.2,30.38,NNE,18,2.0,2.0,68,0.00,,,0.01,Wunderground v.1.15,2013-04-27 00:50:00,
2013-04-26 20:55:00,45.7,36.1,30.39,NNE,18,2.0,2.0,69,0.00,,,0.01,Wunderground v.1.15,2013-04-27 00:55:00,
2013-04-26 21:00:00,45.4,35.8,30.39,NNE,18,1.0,1.0,69,0.00,,,0.01,Wunderground v.1.15,2013-04-27 01:00:00,
2013-04-26 21:10:00,44.7,35.9,30.39,NNE,18,1.0,1.0,71,0.00,,,0.01,Wunderground v.1.15,2013-04-27 01:10:00,
2013-04-26 21:15:00,44.4,35.6,30.39,NNE,18,1.0,1.0,71,0.00,,,0.01,Wunderground v.1.15,2013-04-27 01:15:00,
2013-04-26 21:25:00,44.2,35.4,30.39,NNE,18,0.0,0.0,71,0.00,,,0.01,Wunderground v.1.15,2013-04-27 01:25:00,
2013-04-26 21:30:00,43.9,35.8,30.39,NNE,18,0.0,1.0,73,0.00,,,0.01,Wunderground v.1.15,2013-04-27 01:30:00,
2013-04-26 21:35:00,43.5,35.8,30.39,NNE,18,1.0,1.0,74,0.00,,,0.01,Wunderground v.1.15,2013-04-27 01:35:00,
2013-04-26 21:40:00,43.3,35.2,30.39,NNE,18,1.0,1.0,73,0.00,,,0.01,Wunderground v.1.15,2013-04-27 01:40:00,
2013-04-26 21:45:00,43.3,35.2,30.39,NNE,18,0.0,1.0,73,0.00,,,0.01,Wunderground v.1.15,2013-04-27 01:45:00,
2013-04-26 21:50:00,43.2,35.1,30.40,NNE,18,0.0,1.0,73,0.00,,,0.01,Wunderground v.1.15,2013-04-27 01:50:00,
2013-04-26 22:00:00,42.7,35.0,30.40,NNE,18,0.0,0.0,74,0.00,,,0.01,Wunderground v.1.15,2013-04-27 02:00:00,
2013-04-26 22:10:00,42.4,35.0,30.40,NNE,18,1.0,1.0,75,0.00,,,0.01,Wunderground v.1.15,2013-04-27 02:10:00,
2013-04-26 22:15:00,42.2,34.8,30.40,NNE,18,0.0,1.0,75,0.00,,,0.01,Wunderground v.1.15,2013-04-27 02:15:00,
2013-04-26 22:20:00,42.1,34.7,30.40,NNE,18,0.0,0.0,75,0.00,,,0.01,Wunderground v.1.15,2013-04-27 02:20:00,
2013-04-26 22:25:00,41.9,34.6,30.40,NNE,18,0.0,0.0,75,0.00,,,0.01,Wunderground v.1.15,2013-04-27 02:25:00,
2013-04-26 22:30:00,41.7,34.7,30.40,NNE,18,0.0,0.0,76,0.00,,,0.01,Wunderground v.1.15,2013-04-27 02:30:00,
2013-04-26 22:40:00,41.5,34.5,30.40,NNE,18,0.0,0.0,76,0.00,,,0.01,Wunderground v.1.15,2013-04-27 02:40:00,
2013-04-26 22:45:00,41.3,34.6,30.40,NNE,18,0.0,0.0,77,0.00,,,0.01,Wunderground v.1.15,2013-04-27 02:45:00,
2013-04-26 22:50:00,41.1,34.4,30.40,NNE,18,0.0,0.0,77,0.00,,,0.01,Wunderground v.1.15,2013-04-27 02:50:00,
2013-04-26 22:55:00,40.9,34.2,30.40,NNE,18,0.0,0.0,77,0.00,,,0.01,Wunderground v.1.15,2013-04-27 02:55:00,
2013-04-26 23:00:00,40.6,34.6,30.40,NNE,18,0.0,0.0,79,0.00,,,0.01,Wunderground v.1.15,2013-04-27 03:00:00,
2013-04-26 23:10:00,40.4,34.4,30.40,NNE,18,0.0,0.0,79,0.00,,,0.01,Wunderground v.1.15,2013-04-27 03:10:00,
2013-04-26 23:15:00,40.2,33.9,30.40,NNE,18,0.0,0.0,78,0.00,,,0.01,Wunderground v.1.15,2013-04-27 03:15:00,
2013-04-26 23:25:00,39.8,33.8,30.40,NNE,18,0.0,0.0,79,0.00,,,0.01,Wunderground v.1.15,2013-04-27 03:25:00,
2013-04-26 23:30:00,39.7,34.0,30.40,NNE,18,0.0,0.0,80,0.00,,,0.01,Wunderground v.1.15,2013-04-27 03:30:00,
2013-04-26 23:35:00,39.6,33.9,30.39,NNE,18,0.0,0.0,80,0.00,,,0.01,Wunderground v.1.15,2013-04-27 03:35:00,
2013-04-26 23:40:00,39.4,33.7,30.39,NNE,18,0.0,0.0,80,0.00,,,0.01,Wunderground v.1.15,2013-04-27 03:40:00,
2013-04-26 23:45:00,39.3,33.6,30.39,NNE,18,0.0,0.0,80,0.00,,,0.01,Wunderground v.1.15,2013-04-27 03:45:00,
2013-04-26 23:55:00,39.1,33.8,30.39,NNE,18,0.0,0.0,81,0.00,,,0.01,Wunderground v.1.15,2013-04-27 03:55:00,